Alamo, California
Current Conditions -  °F | °C
As of 1:53 PM on Monday 20 Oct 2014 (Local Time) from KCCR Reporting Station
Overcast Overcast  
Wind Chill: 67°   Ceiling: 3500
Heat Index: 67°   Visibility: 10mi
Dew Point: 50°   Wind: 10mph
Humidity: 54%   Direction: 260°W
Pressure: 29.96"   Gusts: NA
Location:  37.85°N, 122.03°W
Report Text: KCCR 202053Z 26009KT 10SM OVC035 19/10 A2996 RMK AO2 SLP132 T01940100 58002
Loading
Personal Weather Stations






























Interactive Weather Map New forecast layout! Learn more

10-Day Weather Forecast

Advertisements
Track Severe Weather on mobile